createdAt,value
2017-10-20T00:01:55.419Z,13.50
2017-10-20T00:04:23.631Z,13.50
2017-10-20T00:06:51.139Z,13.40
2017-10-20T00:09:18.747Z,13.40
2017-10-20T00:11:46.259Z,13.40
2017-10-20T00:14:13.791Z,13.40
2017-10-20T00:16:41.328Z,13.40
2017-10-20T00:19:08.883Z,13.40
2017-10-20T00:21:36.395Z,13.40
2017-10-20T00:24:04.004Z,13.40
2017-10-20T00:26:31.516Z,13.50
2017-10-20T00:28:59.119Z,13.50
2017-10-20T00:31:26.887Z,13.50
2017-10-20T00:33:54.421Z,13.50
2017-10-20T00:36:22.695Z,13.40
2017-10-20T00:38:50.995Z,13.40
2017-10-20T00:41:18.503Z,13.40
2017-10-20T00:43:46.063Z,13.40
2017-10-20T00:46:13.571Z,13.50
2017-10-20T00:48:41.137Z,13.50
2017-10-20T00:51:08.688Z,13.50
2017-10-20T00:53:36.199Z,13.50
2017-10-20T00:56:03.803Z,13.50
2017-10-20T00:58:31.315Z,13.40
2017-10-20T01:00:58.924Z,13.50
2017-10-20T01:03:26.443Z,13.50
2017-10-20T01:05:54.040Z,13.50
2017-10-20T01:08:21.579Z,13.50
2017-10-20T01:10:49.871Z,13.50
2017-10-20T01:13:17.435Z,13.50
2017-10-20T01:15:44.963Z,13.50
2017-10-20T01:18:13.248Z,13.40
2017-10-20T01:20:41.539Z,13.40
2017-10-20T01:23:09.380Z,13.40
2017-10-20T01:25:36.899Z,13.50
2017-10-20T01:28:04.403Z,13.40
2017-10-20T01:30:32.704Z,13.40
2017-10-20T01:33:00.208Z,13.40
2017-10-20T01:35:27.834Z,13.50
2017-10-20T01:37:55.343Z,13.40
2017-10-20T01:40:22.944Z,13.30
2017-10-20T01:42:50.499Z,13.40
2017-10-20T01:45:18.008Z,13.40
2017-10-20T01:47:45.531Z,13.50
2017-10-20T01:50:13.046Z,13.50
2017-10-20T01:52:41.343Z,13.50
2017-10-20T01:55:08.860Z,13.50
2017-10-20T01:57:38.002Z,13.50
2017-10-20T02:00:05.568Z,13.50
2017-10-20T02:02:33.449Z,13.50
2017-10-20T02:05:00.987Z,13.50
2017-10-20T02:07:28.511Z,13.50
2017-10-20T02:09:56.021Z,13.50
2017-10-20T02:12:23.548Z,13.50
2017-10-20T02:14:51.823Z,13.50
2017-10-20T02:17:20.115Z,13.50
2017-10-20T02:19:47.685Z,13.50
2017-10-20T02:22:15.206Z,13.50
2017-10-20T02:24:43.484Z,13.50
2017-10-20T02:27:11.792Z,13.50
2017-10-20T02:29:39.345Z,13.50
2017-10-20T02:32:06.854Z,13.50
2017-10-20T02:34:34.981Z,13.50
2017-10-20T02:37:02.512Z,13.40
2017-10-20T02:39:30.803Z,13.40
2017-10-20T02:41:58.577Z,13.40
2017-10-20T02:44:26.439Z,13.40
2017-10-20T02:46:53.947Z,13.30
2017-10-20T02:49:21.476Z,13.30
2017-10-20T02:51:48.989Z,13.30
2017-10-20T02:54:17.285Z,13.30
2017-10-20T02:56:44.846Z,13.30
2017-10-20T02:59:12.412Z,13.30
2017-10-20T03:01:39.963Z,13.30
2017-10-20T03:04:07.487Z,13.30
2017-10-20T03:06:35.004Z,13.20
2017-10-20T03:09:02.528Z,13.20
2017-10-20T03:11:30.800Z,13.20
2017-10-20T03:13:59.204Z,13.20
2017-10-20T03:16:26.715Z,13.20
2017-10-20T03:18:54.227Z,13.20
2017-10-20T03:21:22.211Z,13.30
2017-10-20T03:23:49.715Z,13.20
2017-10-20T03:26:17.999Z,13.20
2017-10-20T03:28:46.331Z,13.30
2017-10-20T03:31:14.357Z,13.30
2017-10-20T03:33:41.924Z,13.30
2017-10-20T03:36:09.447Z,13.30
2017-10-20T03:38:37.720Z,13.30
2017-10-20T03:41:05.924Z,13.30
2017-10-20T03:43:33.423Z,13.30
2017-10-20T03:46:00.944Z,13.30
2017-10-20T03:48:28.500Z,13.30
2017-10-20T03:50:56.019Z,13.30
2017-10-20T03:53:23.526Z,13.30
2017-10-20T03:55:51.039Z,13.30
2017-10-20T03:58:18.556Z,13.30
2017-10-20T04:00:46.085Z,13.30
2017-10-20T04:03:13.592Z,13.20
2017-10-20T04:05:41.116Z,13.20
2017-10-20T04:08:08.667Z,13.20
2017-10-20T04:10:36.183Z,13.10
2017-10-20T04:13:03.739Z,13.20
2017-10-20T04:15:32.027Z,13.20
2017-10-20T04:17:59.530Z,13.20
2017-10-20T04:20:27.075Z,13.20
2017-10-20T04:22:54.596Z,13.20
2017-10-20T04:25:22.107Z,13.20
2017-10-20T04:27:49.626Z,13.20
2017-10-20T04:30:17.906Z,13.20
2017-10-20T04:32:46.214Z,13.20
2017-10-20T04:35:14.240Z,13.20
2017-10-20T04:37:42.135Z,13.10
2017-10-20T04:40:09.649Z,13.10
2017-10-20T04:42:37.251Z,13.10
2017-10-20T04:45:04.811Z,13.10
2017-10-20T04:47:32.335Z,13.10
2017-10-20T04:50:00.543Z,13.20
2017-10-20T04:52:28.111Z,13.20
2017-10-20T04:54:55.663Z,13.20
2017-10-20T04:57:23.190Z,13.20
2017-10-20T04:59:50.785Z,13.20
2017-10-20T05:02:18.323Z,13.20
2017-10-20T05:04:46.597Z,13.20
2017-10-20T05:07:14.991Z,13.20
2017-10-20T05:09:42.908Z,13.20
2017-10-20T05:12:10.631Z,13.20
2017-10-20T05:14:38.141Z,13.10
2017-10-20T05:17:05.662Z,13.20
2017-10-20T05:19:33.200Z,13.20
2017-10-20T05:22:00.729Z,13.20
2017-10-20T05:24:29.008Z,13.20
2017-10-20T05:26:57.299Z,13.20
2017-10-20T05:29:25.590Z,13.30
2017-10-20T05:31:53.119Z,13.20
2017-10-20T05:34:21.487Z,13.20
2017-10-20T05:36:49.088Z,13.30
2017-10-20T05:39:16.598Z,13.30
2017-10-20T05:41:44.103Z,13.20
2017-10-20T05:44:11.631Z,13.20
2017-10-20T05:46:39.931Z,13.30
2017-10-20T05:49:07.829Z,13.20
2017-10-20T05:51:35.335Z,13.30
2017-10-20T05:54:03.632Z,13.30
2017-10-20T05:56:31.195Z,13.30
2017-10-20T05:58:58.715Z,13.30
2017-10-20T06:01:26.227Z,13.40
2017-10-20T06:03:53.778Z,13.40
2017-10-20T06:06:21.288Z,13.40
2017-10-20T06:08:48.883Z,13.40
2017-10-20T06:11:16.394Z,13.40
2017-10-20T06:13:44.684Z,13.40
2017-10-20T06:16:12.274Z,13.30
2017-10-20T06:18:39.821Z,13.40
2017-10-20T06:21:08.091Z,13.30
2017-10-20T06:23:36.403Z,13.30
2017-10-20T06:26:03.915Z,13.30
2017-10-20T06:28:31.592Z,13.20
2017-10-20T06:30:59.987Z,13.30
2017-10-20T06:33:27.495Z,13.30
2017-10-20T06:35:55.019Z,13.30
2017-10-20T06:38:22.528Z,13.30
2017-10-20T06:40:50.066Z,13.40
2017-10-20T06:43:17.586Z,13.40
2017-10-20T06:45:45.114Z,13.40
2017-10-20T06:48:13.387Z,13.50
2017-10-20T06:50:41.683Z,13.50
2017-10-20T06:53:09.204Z,13.50
2017-10-20T06:55:36.728Z,13.50
2017-10-20T06:58:04.235Z,13.60
2017-10-20T07:00:32.536Z,13.70
2017-10-20T07:03:00.043Z,13.60
2017-10-20T07:05:27.792Z,13.70
2017-10-20T07:07:55.314Z,13.80
2017-10-20T07:10:22.962Z,13.80
2017-10-20T07:12:51.255Z,13.90
2017-10-20T07:15:18.764Z,13.90
2017-10-20T07:17:46.287Z,13.90
2017-10-20T07:20:17.473Z,14.00
2017-10-20T07:22:44.998Z,14.00
2017-10-20T07:25:13.174Z,14.10
2017-10-20T07:27:41.015Z,14.10
2017-10-20T07:30:08.528Z,14.20
2017-10-20T07:32:36.244Z,14.20
2017-10-20T07:35:03.756Z,14.20
2017-10-20T07:37:31.283Z,14.30
2017-10-20T07:39:58.786Z,14.30
2017-10-20T07:42:27.079Z,14.40
2017-10-20T07:44:55.289Z,14.40
2017-10-20T07:47:22.810Z,14.50
2017-10-20T07:49:50.379Z,14.50
2017-10-20T07:52:17.957Z,14.60
2017-10-20T07:54:45.454Z,14.60
2017-10-20T07:57:13.130Z,14.60
2017-10-20T07:59:41.399Z,14.70
2017-10-20T08:02:09.696Z,14.70
2017-10-20T08:04:37.211Z,14.70
2017-10-20T08:07:04.737Z,14.70
2017-10-20T08:09:32.274Z,14.70
2017-10-20T08:11:59.835Z,14.80
2017-10-20T08:14:27.395Z,14.80
2017-10-20T08:16:54.918Z,14.80
2017-10-20T08:19:22.510Z,14.90
2017-10-20T08:21:50.031Z,14.90
2017-10-20T08:24:17.535Z,15.00
2017-10-20T08:26:45.062Z,15.00
2017-10-20T08:29:13.363Z,15.10
2017-10-20T08:31:41.244Z,15.10
2017-10-20T08:34:08.758Z,15.30
2017-10-20T08:36:36.465Z,15.40
2017-10-20T08:39:03.983Z,15.50
2017-10-20T08:41:32.251Z,15.70
2017-10-20T08:43:59.843Z,15.70
2017-10-20T08:46:27.403Z,15.80
2017-10-20T08:48:54.963Z,15.90
2017-10-20T08:51:22.462Z,16.00
2017-10-20T08:53:49.988Z,16.20
2017-10-20T08:56:17.489Z,16.30
2017-10-20T08:58:45.007Z,16.40
2017-10-20T09:01:12.556Z,16.50
2017-10-20T09:03:40.130Z,16.60
2017-10-20T09:06:07.635Z,16.70
2017-10-20T09:08:35.227Z,16.80
2017-10-20T09:11:03.503Z,17.00
2017-10-20T09:13:31.062Z,17.10
2017-10-20T09:15:58.619Z,17.20
2017-10-20T09:18:26.197Z,17.30
2017-10-20T09:20:53.735Z,17.40
2017-10-20T09:23:21.240Z,17.40
2017-10-20T09:25:48.752Z,17.50
2017-10-20T09:28:16.247Z,17.50
2017-10-20T09:30:43.803Z,17.50
2017-10-20T09:33:11.327Z,17.50
2017-10-20T09:35:38.887Z,17.60
2017-10-20T09:38:06.960Z,17.60
2017-10-20T09:40:34.474Z,17.70
2017-10-20T09:43:01.989Z,17.70
2017-10-20T09:45:29.536Z,17.80
2017-10-20T09:47:57.251Z,17.80
2017-10-20T09:50:24.772Z,17.90
2017-10-20T09:52:52.270Z,18.00
2017-10-20T09:55:19.871Z,18.00
2017-10-20T09:57:47.371Z,18.10
2017-10-20T10:00:14.986Z,18.20
2017-10-20T10:02:42.551Z,18.20
2017-10-20T10:05:10.059Z,18.30
2017-10-20T10:07:37.661Z,18.30
2017-10-20T10:10:05.184Z,18.40
2017-10-20T10:12:32.787Z,18.50
2017-10-20T10:15:00.359Z,18.50
2017-10-20T10:17:27.877Z,18.60
2017-10-20T10:19:56.142Z,18.70
2017-10-20T10:22:23.659Z,18.70
2017-10-20T10:24:51.158Z,18.80
2017-10-20T10:27:18.683Z,18.80
2017-10-20T10:29:46.183Z,18.90
2017-10-20T10:32:14.466Z,19.00
2017-10-20T10:34:42.726Z,19.00
2017-10-20T10:37:10.239Z,19.00
2017-10-20T10:39:37.738Z,19.10
2017-10-20T10:42:05.268Z,19.20
2017-10-20T10:44:32.795Z,19.30
2017-10-20T10:47:00.355Z,19.40
2017-10-20T10:49:27.911Z,19.50
2017-10-20T10:51:55.426Z,19.60
2017-10-20T10:54:22.941Z,19.70
2017-10-20T10:56:50.467Z,19.70
2017-10-20T10:59:18.736Z,19.90
2017-10-20T11:01:47.039Z,19.90
2017-10-20T11:04:14.539Z,19.90
2017-10-20T11:06:53.987Z,20.00
2017-10-20T11:09:21.595Z,20.00
2017-10-20T11:12:01.136Z,20.00
2017-10-20T11:14:28.691Z,20.00
2017-10-20T11:16:56.459Z,20.10
2017-10-20T11:19:23.966Z,20.10
2017-10-20T11:21:51.478Z,20.20
2017-10-20T11:24:19.028Z,20.20
2017-10-20T11:26:46.791Z,20.20
2017-10-20T11:29:14.360Z,20.10
2017-10-20T11:31:41.911Z,20.00
2017-10-20T11:34:09.483Z,19.90
2017-10-20T11:36:36.988Z,19.80
2017-10-20T11:39:04.503Z,19.80
2017-10-20T11:41:32.002Z,19.80
2017-10-20T11:43:59.601Z,19.70
2017-10-20T11:46:27.162Z,19.70
2017-10-20T11:48:54.727Z,19.70
2017-10-20T11:51:22.283Z,19.70
2017-10-20T11:53:50.003Z,19.70
2017-10-20T11:56:17.604Z,19.70
2017-10-20T11:58:45.133Z,19.60
2017-10-20T12:01:13.438Z,19.60
2017-10-20T12:03:41.218Z,19.60
2017-10-20T12:06:08.719Z,19.50
2017-10-20T12:08:36.848Z,19.50
2017-10-20T12:11:04.379Z,19.40
2017-10-20T12:13:31.955Z,19.40
2017-10-20T12:15:59.471Z,19.40
2017-10-20T12:18:27.066Z,19.40
2017-10-20T12:20:54.584Z,19.30
2017-10-20T12:23:22.182Z,19.30
2017-10-20T12:25:50.715Z,19.30
2017-10-20T12:28:19.047Z,19.30
2017-10-20T12:30:46.558Z,19.30
2017-10-20T12:33:14.138Z,19.20
2017-10-20T12:35:41.723Z,19.20
2017-10-20T12:38:09.279Z,19.20
2017-10-20T12:40:36.857Z,19.10
2017-10-20T12:43:04.358Z,19.10
2017-10-20T12:45:31.874Z,19.10
2017-10-20T12:47:59.372Z,19.10
2017-10-20T12:50:26.970Z,19.10
2017-10-20T12:52:55.180Z,19.10
2017-10-20T12:55:22.709Z,19.00
2017-10-20T12:57:50.213Z,19.00
2017-10-20T13:00:17.735Z,19.00
2017-10-20T13:02:45.243Z,19.00
2017-10-20T13:05:12.834Z,18.90
2017-10-20T13:07:40.339Z,18.90
2017-10-20T13:10:07.854Z,18.90
2017-10-20T13:12:35.372Z,18.90
2017-10-20T13:15:02.970Z,19.00
2017-10-20T13:17:30.530Z,19.00
2017-10-20T13:19:58.046Z,19.00
2017-10-20T13:22:25.543Z,19.00
2017-10-20T13:24:53.216Z,18.90
2017-10-20T13:27:20.715Z,18.90
2017-10-20T13:29:48.227Z,19.00
2017-10-20T13:32:15.731Z,19.00
2017-10-20T13:34:43.238Z,19.00
2017-10-20T13:37:10.799Z,19.00
2017-10-20T13:39:38.298Z,19.00
2017-10-20T13:42:05.815Z,19.10
2017-10-20T13:44:33.317Z,19.10
2017-10-20T13:47:00.830Z,19.10
2017-10-20T13:49:28.335Z,19.10
2017-10-20T13:51:55.854Z,19.10
2017-10-20T13:54:23.403Z,19.10
2017-10-20T13:56:50.952Z,19.10
2017-10-20T13:59:18.438Z,19.10
2017-10-20T14:01:45.949Z,19.00
2017-10-20T14:04:13.535Z,19.00
2017-10-20T14:06:41.202Z,18.90
2017-10-20T14:09:08.761Z,18.90
2017-10-20T14:11:36.315Z,18.90
2017-10-20T14:14:03.875Z,18.80
2017-10-20T14:16:31.394Z,18.80
2017-10-20T14:18:59.426Z,18.80
2017-10-20T14:21:26.943Z,18.90
2017-10-20T14:23:55.684Z,18.90
2017-10-20T14:26:23.198Z,18.90
2017-10-20T14:28:51.462Z,19.00
2017-10-20T14:31:19.762Z,18.90
2017-10-20T14:33:47.319Z,18.90
2017-10-20T14:36:14.823Z,18.90
2017-10-20T14:38:42.336Z,18.90
2017-10-20T14:41:10.103Z,18.90
2017-10-20T14:43:37.614Z,18.90
2017-10-20T14:46:05.111Z,18.90
2017-10-20T14:48:32.671Z,18.80
2017-10-20T14:51:00.172Z,18.80
2017-10-20T14:53:27.687Z,18.80
2017-10-20T14:55:55.186Z,18.80
2017-10-20T14:58:22.706Z,18.80
2017-10-20T15:00:50.206Z,18.80
2017-10-20T15:03:17.818Z,18.80
2017-10-20T15:05:45.319Z,18.80
2017-10-20T15:08:12.838Z,18.80
2017-10-20T15:10:40.338Z,18.70
2017-10-20T15:13:07.855Z,18.70
2017-10-20T15:15:35.355Z,18.70
2017-10-20T15:18:03.380Z,18.70
2017-10-20T15:20:30.904Z,18.60
2017-10-20T15:22:58.499Z,18.50
2017-10-20T15:25:26.004Z,18.40
2017-10-20T15:27:53.520Z,18.40
2017-10-20T15:30:21.030Z,18.30
2017-10-20T15:32:48.631Z,18.30
2017-10-20T15:35:16.147Z,18.30
2017-10-20T15:37:43.647Z,18.30
2017-10-20T15:40:11.204Z,18.30
2017-10-20T15:42:38.770Z,18.30
2017-10-20T15:45:06.287Z,18.20
2017-10-20T15:47:35.295Z,18.10
2017-10-20T15:50:03.583Z,18.10
2017-10-20T15:52:31.846Z,18.00
2017-10-20T15:55:00.160Z,18.00
2017-10-20T15:57:27.663Z,18.00
2017-10-20T15:59:55.181Z,17.90
2017-10-20T16:02:22.680Z,17.90
2017-10-20T16:04:50.294Z,17.90
2017-10-20T16:07:18.023Z,17.90
2017-10-20T16:09:46.322Z,17.90
2017-10-20T16:12:13.829Z,17.80
2017-10-20T16:14:41.351Z,17.90
2017-10-20T16:17:08.854Z,17.90
2017-10-20T16:19:36.366Z,17.80
2017-10-20T16:22:03.915Z,17.70
2017-10-20T16:24:31.430Z,17.70
2017-10-20T16:26:59.699Z,17.60
2017-10-20T16:29:27.231Z,17.50
2017-10-20T16:31:54.763Z,17.40
2017-10-20T16:34:22.271Z,17.30
2017-10-20T16:36:49.782Z,17.20
2017-10-20T16:39:17.335Z,17.10
2017-10-20T16:41:44.851Z,17.10
2017-10-20T16:44:12.351Z,17.00
2017-10-20T16:46:39.866Z,17.00
2017-10-20T16:49:07.375Z,17.00
2017-10-20T16:51:34.927Z,16.90
2017-10-20T16:54:03.198Z,16.80
2017-10-20T16:56:30.759Z,16.70
2017-10-20T16:58:58.315Z,16.60
2017-10-20T17:01:26.500Z,16.60
2017-10-20T17:03:54.050Z,16.60
2017-10-20T17:06:22.034Z,16.60
2017-10-20T17:08:49.531Z,16.60
2017-10-20T17:11:17.042Z,16.60
2017-10-20T17:13:44.543Z,16.60
2017-10-20T17:16:12.151Z,16.50
2017-10-20T17:18:39.716Z,16.50
2017-10-20T17:21:07.231Z,16.50
2017-10-20T17:23:35.857Z,16.50
2017-10-20T17:26:03.399Z,16.40
2017-10-20T17:28:32.438Z,16.20
2017-10-20T17:30:59.960Z,16.20
2017-10-20T17:33:27.518Z,16.10
2017-10-20T17:35:55.015Z,16.00
2017-10-20T17:38:22.539Z,16.00
2017-10-20T17:40:50.113Z,16.00
2017-10-20T17:43:17.627Z,16.10
2017-10-20T17:45:45.172Z,16.10
2017-10-20T17:48:12.703Z,16.10
2017-10-20T17:50:40.225Z,16.00
2017-10-20T17:53:08.510Z,16.00
2017-10-20T17:55:36.293Z,16.00
2017-10-20T17:58:03.810Z,16.00
2017-10-20T18:00:32.110Z,16.00
2017-10-20T18:02:59.627Z,16.00
2017-10-20T18:05:27.227Z,15.90
2017-10-20T18:10:46.705Z,15.90
2017-10-20T18:13:14.991Z,15.70
2017-10-20T18:15:42.543Z,15.70
2017-10-20T18:18:10.063Z,15.60
2017-10-20T18:20:37.558Z,15.50
2017-10-20T18:23:05.075Z,15.40
2017-10-20T18:25:32.583Z,15.40
2017-10-20T18:28:00.110Z,15.40
2017-10-20T18:30:28.381Z,15.30
2017-10-20T18:32:56.692Z,15.30
2017-10-20T18:35:24.199Z,15.20
2017-10-20T18:37:51.814Z,15.30
2017-10-20T18:40:19.335Z,15.20
2017-10-20T18:42:46.838Z,15.10
2017-10-20T18:45:14.375Z,15.00
2017-10-20T18:47:41.879Z,15.10
2017-10-20T18:50:09.503Z,15.10
2017-10-20T18:52:37.003Z,15.10
2017-10-20T18:55:04.620Z,15.20
2017-10-20T18:57:32.294Z,15.20
2017-10-20T18:59:59.811Z,15.20
2017-10-20T19:02:28.232Z,15.20
2017-10-20T19:04:55.777Z,15.20
2017-10-20T19:07:23.288Z,15.20
2017-10-20T19:09:50.802Z,15.20
2017-10-20T19:12:18.307Z,15.20
2017-10-20T19:14:45.827Z,15.20
2017-10-20T19:17:13.334Z,15.20
2017-10-20T19:19:40.851Z,15.10
2017-10-20T19:22:08.498Z,15.10
2017-10-20T19:24:36.711Z,15.10
2017-10-20T19:27:04.219Z,15.20
2017-10-20T19:29:31.774Z,15.20
2017-10-20T19:31:59.275Z,15.20
2017-10-20T19:34:26.920Z,15.10
2017-10-20T19:36:54.791Z,15.10
2017-10-20T19:39:22.311Z,15.00
2017-10-20T19:41:50.579Z,15.10
2017-10-20T19:44:18.983Z,15.10
2017-10-20T19:46:46.478Z,15.10
2017-10-20T19:49:13.997Z,15.20
2017-10-20T19:51:41.503Z,15.20
2017-10-20T19:54:09.139Z,15.20
2017-10-20T19:56:36.655Z,15.20
2017-10-20T19:59:04.926Z,15.20
2017-10-20T20:01:33.320Z,15.20
2017-10-20T20:04:00.835Z,15.20
2017-10-20T20:06:28.447Z,15.20
2017-10-20T20:08:56.003Z,15.20
2017-10-20T20:11:23.536Z,15.20
2017-10-20T20:13:51.844Z,15.20
2017-10-20T20:16:19.527Z,15.20
2017-10-20T20:18:47.118Z,15.20
2017-10-20T20:21:16.142Z,15.10
2017-10-20T20:23:43.647Z,15.10
2017-10-20T20:26:11.362Z,15.10
2017-10-20T20:28:39.263Z,15.10
2017-10-20T20:31:07.379Z,15.10
2017-10-20T20:33:36.176Z,15.00
2017-10-20T20:36:04.607Z,15.00
2017-10-20T20:38:32.119Z,14.90
2017-10-20T20:40:59.651Z,14.90
2017-10-20T20:43:27.155Z,15.00
2017-10-20T20:45:54.716Z,14.90
2017-10-20T20:48:22.267Z,14.80
2017-10-20T20:50:50.311Z,14.80
2017-10-20T20:53:18.979Z,14.80
2017-10-20T20:55:46.515Z,14.80
2017-10-20T20:58:14.032Z,14.80
2017-10-20T21:00:41.531Z,14.80
2017-10-20T21:03:09.045Z,14.70
2017-10-20T21:05:36.729Z,14.70
2017-10-20T21:08:04.247Z,14.70
2017-10-20T21:10:32.519Z,14.70
2017-10-20T21:13:01.265Z,14.70
2017-10-20T21:15:28.764Z,14.60
2017-10-20T21:17:57.071Z,14.70
2017-10-20T21:20:24.622Z,14.70
2017-10-20T21:22:52.903Z,14.70
2017-10-20T21:25:20.414Z,14.60
2017-10-20T21:27:47.988Z,14.70
2017-10-20T21:30:15.578Z,14.60
2017-10-20T21:32:43.103Z,14.70
2017-10-20T21:35:10.604Z,14.60
2017-10-20T21:37:38.231Z,14.60
2017-10-20T21:40:06.615Z,14.70
2017-10-20T21:42:34.229Z,14.70
2017-10-20T21:45:01.887Z,14.70
2017-10-20T21:47:29.390Z,14.60
2017-10-20T21:49:57.677Z,14.50
2017-10-20T21:52:25.938Z,14.50
2017-10-20T21:54:54.241Z,14.50
2017-10-20T21:57:21.746Z,14.50
2017-10-20T21:59:49.354Z,14.50
2017-10-20T22:02:16.919Z,14.50
2017-10-20T22:04:44.474Z,14.50
2017-10-20T22:07:12.030Z,14.50
2017-10-20T22:09:39.544Z,14.30
2017-10-20T22:12:07.051Z,14.30
2017-10-20T22:14:34.622Z,14.30
2017-10-20T22:17:02.128Z,14.20
2017-10-20T22:19:29.651Z,14.20
2017-10-20T22:21:57.882Z,14.20
2017-10-20T22:24:26.179Z,14.30
2017-10-20T22:26:53.739Z,14.30
2017-10-20T22:29:21.413Z,14.40
2017-10-20T22:31:48.910Z,14.40
2017-10-20T22:34:16.523Z,14.40
2017-10-20T22:36:44.079Z,14.30
2017-10-20T22:39:11.808Z,14.30
2017-10-20T22:41:39.412Z,14.30
2017-10-20T22:44:06.910Z,14.30
2017-10-20T22:46:34.510Z,14.40
2017-10-20T22:49:02.587Z,14.40
2017-10-20T22:51:30.138Z,14.40
2017-10-20T22:53:57.715Z,14.40
2017-10-20T22:56:25.280Z,14.50
2017-10-20T22:58:53.087Z,14.50
2017-10-20T23:01:21.409Z,14.40
2017-10-20T23:03:48.915Z,14.40
2017-10-20T23:06:16.527Z,14.40
2017-10-20T23:08:44.040Z,14.40
2017-10-20T23:11:11.551Z,14.30
2017-10-20T23:13:39.059Z,14.30
2017-10-20T23:16:06.650Z,14.30
2017-10-20T23:18:34.162Z,14.40
2017-10-20T23:21:01.781Z,14.40
2017-10-20T23:23:29.287Z,14.50
2017-10-20T23:25:56.798Z,14.60
2017-10-20T23:28:24.346Z,14.50
2017-10-20T23:30:51.863Z,14.50
2017-10-20T23:33:19.372Z,14.60
2017-10-20T23:35:46.891Z,14.60
2017-10-20T23:38:14.463Z,14.50
2017-10-20T23:40:42.755Z,14.50
2017-10-20T23:43:10.300Z,14.50
2017-10-20T23:45:38.590Z,14.50
2017-10-20T23:48:06.106Z,14.40
2017-10-20T23:50:33.632Z,14.50
2017-10-20T23:53:01.181Z,14.40
2017-10-20T23:55:28.826Z,14.40
2017-10-20T23:57:56.500Z,14.40
